aviador You're here:

KVBT Decoded Metar

BENTONVILLE in AR, USA
Report Time2017-11-20 11:56:00
UTC Time2017-11-20 13:27:48
Flight Rules Old
Wind170° at 04 kt
W.Decomp.*RWY 18: 3.9 kt HW 1 kt LCW
W.Rank170° ranks 4
Current wind is below 170° avg. (6.6)
Visibility9999 m
Phenomena:N/A
Clouds:N/A
Expected CloudBase > 2,400 ft AGL from Temp-Dew spread
CeilingNone
Temp03°C (ISA -9)
Dew Point-3°C (65% RH)
AAT-0.8°C
QNH1021 hPa
Density Alt-43 ft
Elevation1,296 ft
Report Wrong Elevation
Raw Report
KVBT 201156Z AUTO 17004KT 10SM CLR 03/M03 A3015 RMK AO2 SLP217
T00281033 10033 20017 56010=

Extra information for KVBT:More info

Metar Taf Metar & Taf Last 4 Metars F.Rules Stats Wind Profile Meteogram Temp Stats Airport Information Weather charts Add Link Nearby VenuesMetar ALERT Operation Metar Decoded Social comments

AIRNAV info for KVBT